sensor_id;sensor_type;location;lat;lon;timestamp;temperature;humidity
4828;DHT22;2428;48.732;9.148;2023-12-04T00:00:12;-3.70;99.90
4828;DHT22;2428;48.732;9.148;2023-12-04T00:02:38;-3.70;99.90
4828;DHT22;2428;48.732;9.148;2023-12-04T00:05:05;-3.70;99.90
4828;DHT22;2428;48.732;9.148;2023-12-04T00:07:31;-3.80;99.90
4828;DHT22;2428;48.732;9.148;2023-12-04T00:09:56;-3.80;99.90
4828;DHT22;2428;48.732;9.148;2023-12-04T00:12:22;-3.80;99.90
4828;DHT22;2428;48.732;9.148;2023-12-04T00:14:47;-3.80;99.90
4828;DHT22;2428;48.732;9.148;2023-12-04T00:17:13;-3.80;99.90
4828;DHT22;2428;48.732;9.148;2023-12-04T00:19:38;-3.90;99.90
4828;DHT22;2428;48.732;9.148;2023-12-04T00:22:04;-3.90;99.90
4828;DHT22;2428;48.732;9.148;2023-12-04T00:24:29;-3.90;99.90
4828;DHT22;2428;48.732;9.148;2023-12-04T00:26:55;-3.90;99.90
4828;DHT22;2428;48.732;9.148;2023-12-04T00:29:20;-3.90;99.90
4828;DHT22;2428;48.732;9.148;2023-12-04T00:31:46;-3.90;99.90
4828;DHT22;2428;48.732;9.148;2023-12-04T00:34:11;-3.90;99.90
4828;DHT22;2428;48.732;9.148;2023-12-04T00:36:37;-3.90;99.90
4828;DHT22;2428;48.732;9.148;2023-12-04T00:39:03;-3.90;99.90
4828;DHT22;2428;48.732;9.148;2023-12-04T00:41:29;-4.00;99.90
4828;DHT22;2428;48.732;9.148;2023-12-04T00:43:55;-4.00;99.90
4828;DHT22;2428;48.732;9.148;2023-12-04T00:46:20;-4.00;99.90
4828;DHT22;2428;48.732;9.148;2023-12-04T00:48:46;-4.10;99.90
4828;DHT22;2428;48.732;9.148;2023-12-04T00:51:11;-4.10;99.90
4828;DHT22;2428;48.732;9.148;2023-12-04T00:53:37;-4.10;99.90
4828;DHT22;2428;48.732;9.148;2023-12-04T00:56:03;-4.20;99.90
4828;DHT22;2428;48.732;9.148;2023-12-04T00:58:28;-4.20;99.90
4828;DHT22;2428;48.732;9.148;2023-12-04T01:00:54;-4.30;99.90
4828;DHT22;2428;48.732;9.148;2023-12-04T01:03:20;-4.30;99.90
4828;DHT22;2428;48.732;9.148;2023-12-04T01:05:46;-4.20;99.90
4828;DHT22;2428;48.732;9.148;2023-12-04T01:08:11;-4.20;99.90
4828;DHT22;2428;48.732;9.148;2023-12-04T01:10:38;-4.20;99.90
4828;DHT22;2428;48.732;9.148;2023-12-04T01:13:03;-4.20;99.90
4828;DHT22;2428;48.732;9.148;2023-12-04T01:15:29;-4.10;99.90
4828;DHT22;2428;48.732;9.148;2023-12-04T01:17:55;-4.10;99.90
4828;DHT22;2428;48.732;9.148;2023-12-04T01:20:20;-4.10;99.90
4828;DHT22;2428;48.732;9.148;2023-12-04T01:22:46;-4.10;99.90
4828;DHT22;2428;48.732;9.148;2023-12-04T01:25:12;-4.10;99.90
4828;DHT22;2428;48.732;9.148;2023-12-04T01:27:37;-4.10;99.90
4828;DHT22;2428;48.732;9.148;2023-12-04T01:30:05;-4.10;99.90
4828;DHT22;2428;48.732;9.148;2023-12-04T01:32:31;-4.10;99.90
4828;DHT22;2428;48.732;9.148;2023-12-04T01:34:56;-4.10;99.90
4828;DHT22;2428;48.732;9.148;2023-12-04T01:37:22;-4.10;99.90
4828;DHT22;2428;48.732;9.148;2023-12-04T01:39:48;-4.10;99.90
4828;DHT22;2428;48.732;9.148;2023-12-04T01:42:14;-4.10;99.90
4828;DHT22;2428;48.732;9.148;2023-12-04T01:44:39;-4.10;99.90
4828;DHT22;2428;48.732;9.148;2023-12-04T01:47:05;-4.10;99.90
4828;DHT22;2428;48.732;9.148;2023-12-04T01:49:32;-4.20;99.90
4828;DHT22;2428;48.732;9.148;2023-12-04T01:51:58;-4.20;99.90
4828;DHT22;2428;48.732;9.148;2023-12-04T01:54:24;-4.20;99.90
4828;DHT22;2428;48.732;9.148;2023-12-04T01:56:50;-4.20;99.90
4828;DHT22;2428;48.732;9.148;2023-12-04T01:59:15;-4.30;99.90
4828;DHT22;2428;48.732;9.148;2023-12-04T02:01:42;-4.30;99.90
4828;DHT22;2428;48.732;9.148;2023-12-04T02:04:08;-4.40;99.90
4828;DHT22;2428;48.732;9.148;2023-12-04T02:06:34;-4.40;99.90
4828;DHT22;2428;48.732;9.148;2023-12-04T02:09:00;-4.40;99.90
4828;DHT22;2428;48.732;9.148;2023-12-04T02:11:26;-4.50;99.90
4828;DHT22;2428;48.732;9.148;2023-12-04T02:13:52;-4.40;99.90
4828;DHT22;2428;48.732;9.148;2023-12-04T02:16:18;-4.40;99.90
4828;DHT22;2428;48.732;9.148;2023-12-04T02:18:45;-4.40;99.90
4828;DHT22;2428;48.732;9.148;2023-12-04T02:21:11;-4.40;99.90
4828;DHT22;2428;48.732;9.148;2023-12-04T02:23:36;-4.40;99.90
4828;DHT22;2428;48.732;9.148;2023-12-04T02:26:09;-4.40;99.90
4828;DHT22;2428;48.732;9.148;2023-12-04T02:28:36;-4.30;99.90
4828;DHT22;2428;48.732;9.148;2023-12-04T02:31:04;-4.30;99.90
4828;DHT22;2428;48.732;9.148;2023-12-04T02:33:30;-4.30;99.90
4828;DHT22;2428;48.732;9.148;2023-12-04T02:35:57;-4.30;99.90
4828;DHT22;2428;48.732;9.148;2023-12-04T02:38:24;-4.30;99.90
4828;DHT22;2428;48.732;9.148;2023-12-04T02:40:50;-4.30;99.90
4828;DHT22;2428;48.732;9.148;2023-12-04T02:43:15;-4.30;99.90
4828;DHT22;2428;48.732;9.148;2023-12-04T02:45:41;-4.30;99.90
4828;DHT22;2428;48.732;9.148;2023-12-04T02:48:07;-4.30;99.90
4828;DHT22;2428;48.732;9.148;2023-12-04T02:50:33;-4.40;99.90
4828;DHT22;2428;48.732;9.148;2023-12-04T02:52:58;-4.40;99.90
4828;DHT22;2428;48.732;9.148;2023-12-04T02:55:24;-4.40;99.90
4828;DHT22;2428;48.732;9.148;2023-12-04T02:57:49;-4.40;99.90
4828;DHT22;2428;48.732;9.148;2023-12-04T03:00:15;-4.40;99.90
4828;DHT22;2428;48.732;9.148;2023-12-04T03:02:41;-4.40;99.90
4828;DHT22;2428;48.732;9.148;2023-12-04T03:05:07;-4.30;99.90
4828;DHT22;2428;48.732;9.148;2023-12-04T03:07:32;-4.30;99.90
4828;DHT22;2428;48.732;9.148;2023-12-04T03:09:58;-4.40;99.90
4828;DHT22;2428;48.732;9.148;2023-12-04T03:12:23;-4.30;99.90
4828;DHT22;2428;48.732;9.148;2023-12-04T03:14:49;-4.30;99.90
4828;DHT22;2428;48.732;9.148;2023-12-04T03:17:14;-4.30;99.90
4828;DHT22;2428;48.732;9.148;2023-12-04T03:19:40;-4.30;99.90
4828;DHT22;2428;48.732;9.148;2023-12-04T03:22:06;-4.30;99.90
4828;DHT22;2428;48.732;9.148;2023-12-04T03:24:31;-4.30;99.90
4828;DHT22;2428;48.732;9.148;2023-12-04T03:26:57;-4.30;99.90
4828;DHT22;2428;48.732;9.148;2023-12-04T03:29:22;-4.30;99.90
4828;DHT22;2428;48.732;9.148;2023-12-04T03:31:48;-4.30;99.90
4828;DHT22;2428;48.732;9.148;2023-12-04T03:34:13;-4.40;99.90
4828;DHT22;2428;48.732;9.148;2023-12-04T03:36:39;-4.50;99.90
4828;DHT22;2428;48.732;9.148;2023-12-04T03:39:04;-4.40;99.90
4828;DHT22;2428;48.732;9.148;2023-12-04T03:41:30;-4.30;99.90
4828;DHT22;2428;48.732;9.148;2023-12-04T03:43:56;-4.30;99.90
4828;DHT22;2428;48.732;9.148;2023-12-04T03:46:21;-4.30;99.90
4828;DHT22;2428;48.732;9.148;2023-12-04T03:48:47;-4.30;99.90
4828;DHT22;2428;48.732;9.148;2023-12-04T03:51:12;-4.30;99.90
4828;DHT22;2428;48.732;9.148;2023-12-04T03:53:38;-4.40;99.90
4828;DHT22;2428;48.732;9.148;2023-12-04T03:56:04;-4.40;99.90
4828;DHT22;2428;48.732;9.148;2023-12-04T03:58:29;-4.40;99.90
4828;DHT22;2428;48.732;9.148;2023-12-04T04:00:55;-4.40;99.90
4828;DHT22;2428;48.732;9.148;2023-12-04T04:03:20;-4.30;99.90
4828;DHT22;2428;48.732;9.148;2023-12-04T04:05:46;-4.30;99.90
4828;DHT22;2428;48.732;9.148;2023-12-04T04:08:12;-4.20;99.90
4828;DHT22;2428;48.732;9.148;2023-12-04T04:10:37;-4.20;99.90
4828;DHT22;2428;48.732;9.148;2023-12-04T04:13:03;-4.20;99.90
4828;DHT22;2428;48.732;9.148;2023-12-04T04:15:28;-4.20;99.90
4828;DHT22;2428;48.732;9.148;2023-12-04T04:17:54;-4.20;99.90
4828;DHT22;2428;48.732;9.148;2023-12-04T04:20:20;-4.30;99.90
4828;DHT22;2428;48.732;9.148;2023-12-04T04:22:48;-4.30;99.90
4828;DHT22;2428;48.732;9.148;2023-12-04T04:25:13;-4.30;99.90
4828;DHT22;2428;48.732;9.148;2023-12-04T04:27:39;-4.40;99.90
4828;DHT22;2428;48.732;9.148;2023-12-04T04:30:05;-4.40;99.90
4828;DHT22;2428;48.732;9.148;2023-12-04T04:32:30;-4.40;99.90
4828;DHT22;2428;48.732;9.148;2023-12-04T04:34:57;-4.30;99.90
4828;DHT22;2428;48.732;9.148;2023-12-04T04:37:22;-4.30;99.90
4828;DHT22;2428;48.732;9.148;2023-12-04T04:39:48;-4.30;99.90
4828;DHT22;2428;48.732;9.148;2023-12-04T04:42:14;-4.20;99.90
4828;DHT22;2428;48.732;9.148;2023-12-04T04:44:40;-4.20;99.90
4828;DHT22;2428;48.732;9.148;2023-12-04T04:47:05;-4.10;99.90
4828;DHT22;2428;48.732;9.148;2023-12-04T04:49:31;-4.10;99.90
4828;DHT22;2428;48.732;9.148;2023-12-04T04:51:56;-4.10;99.90
4828;DHT22;2428;48.732;9.148;2023-12-04T04:54:22;-4.00;99.90
4828;DHT22;2428;48.732;9.148;2023-12-04T04:56:48;-4.10;99.90
4828;DHT22;2428;48.732;9.148;2023-12-04T04:59:13;-4.10;99.90
4828;DHT22;2428;48.732;9.148;2023-12-04T05:01:39;-4.10;99.90
4828;DHT22;2428;48.732;9.148;2023-12-04T05:04:04;-4.10;99.90
4828;DHT22;2428;48.732;9.148;2023-12-04T05:06:30;-4.00;99.90
4828;DHT22;2428;48.732;9.148;2023-12-04T05:08:56;-4.00;99.90
4828;DHT22;2428;48.732;9.148;2023-12-04T05:11:22;-4.00;99.90
4828;DHT22;2428;48.732;9.148;2023-12-04T05:13:47;-4.00;99.90
4828;DHT22;2428;48.732;9.148;2023-12-04T05:16:13;-4.10;99.90
4828;DHT22;2428;48.732;9.148;2023-12-04T05:18:39;-4.00;99.90
4828;DHT22;2428;48.732;9.148;2023-12-04T05:21:11;-4.00;99.90
4828;DHT22;2428;48.732;9.148;2023-12-04T05:23:37;-4.00;99.90
4828;DHT22;2428;48.732;9.148;2023-12-04T05:26:05;-4.00;99.90
4828;DHT22;2428;48.732;9.148;2023-12-04T05:28:30;-4.00;99.90
4828;DHT22;2428;48.732;9.148;2023-12-04T05:30:56;-3.90;99.90
4828;DHT22;2428;48.732;9.148;2023-12-04T05:33:21;-3.90;99.90
4828;DHT22;2428;48.732;9.148;2023-12-04T05:35:50;-3.90;99.90
4828;DHT22;2428;48.732;9.148;2023-12-04T05:38:18;-3.80;99.90
4828;DHT22;2428;48.732;9.148;2023-12-04T05:40:44;-3.80;99.90
4828;DHT22;2428;48.732;9.148;2023-12-04T05:43:09;-3.80;99.90
4828;DHT22;2428;48.732;9.148;2023-12-04T05:45:35;-3.80;99.90
4828;DHT22;2428;48.732;9.148;2023-12-04T05:48:01;-3.80;99.90
4828;DHT22;2428;48.732;9.148;2023-12-04T05:50:26;-3.90;99.90
4828;DHT22;2428;48.732;9.148;2023-12-04T05:52:52;-4.00;99.90
4828;DHT22;2428;48.732;9.148;2023-12-04T05:55:17;-4.10;99.90
4828;DHT22;2428;48.732;9.148;2023-12-04T05:57:44;-4.10;99.90
4828;DHT22;2428;48.732;9.148;2023-12-04T06:00:10;-4.10;99.90
4828;DHT22;2428;48.732;9.148;2023-12-04T06:02:39;-4.10;99.90
4828;DHT22;2428;48.732;9.148;2023-12-04T06:05:06;-4.10;99.90
4828;DHT22;2428;48.732;9.148;2023-12-04T06:07:33;-4.10;99.90
4828;DHT22;2428;48.732;9.148;2023-12-04T06:09:58;-4.10;99.90
4828;DHT22;2428;48.732;9.148;2023-12-04T06:12:24;-4.00;99.90
4828;DHT22;2428;48.732;9.148;2023-12-04T06:14:49;-4.00;99.90
4828;DHT22;2428;48.732;9.148;2023-12-04T06:17:16;-4.00;99.90
4828;DHT22;2428;48.732;9.148;2023-12-04T06:19:41;-4.00;99.90
4828;DHT22;2428;48.732;9.148;2023-12-04T06:22:07;-4.00;99.90
4828;DHT22;2428;48.732;9.148;2023-12-04T06:24:33;-3.90;99.90
4828;DHT22;2428;48.732;9.148;2023-12-04T06:26:59;-3.80;99.90
4828;DHT22;2428;48.732;9.148;2023-12-04T06:29:25;-3.90;99.90
4828;DHT22;2428;48.732;9.148;2023-12-04T06:31:50;-3.90;99.90
4828;DHT22;2428;48.732;9.148;2023-12-04T06:34:19;-3.90;99.90
4828;DHT22;2428;48.732;9.148;2023-12-04T06:36:45;-3.90;99.90
4828;DHT22;2428;48.732;9.148;2023-12-04T06:39:12;-3.90;99.90
4828;DHT22;2428;48.732;9.148;2023-12-04T06:41:42;-3.80;99.90
4828;DHT22;2428;48.732;9.148;2023-12-04T06:44:08;-3.80;99.90
4828;DHT22;2428;48.732;9.148;2023-12-04T06:46:37;-3.80;99.90
4828;DHT22;2428;48.732;9.148;2023-12-04T06:49:04;-3.80;99.90
4828;DHT22;2428;48.732;9.148;2023-12-04T06:51:30;-3.90;99.90
4828;DHT22;2428;48.732;9.148;2023-12-04T06:53:56;-3.90;99.90
4828;DHT22;2428;48.732;9.148;2023-12-04T06:56:21;-3.90;99.90
4828;DHT22;2428;48.732;9.148;2023-12-04T06:58:47;-3.80;99.90
4828;DHT22;2428;48.732;9.148;2023-12-04T07:01:13;-3.70;99.90
4828;DHT22;2428;48.732;9.148;2023-12-04T07:03:38;-3.70;99.90
4828;DHT22;2428;48.732;9.148;2023-12-04T07:06:04;-3.70;99.90
4828;DHT22;2428;48.732;9.148;2023-12-04T07:08:30;-3.60;99.90
4828;DHT22;2428;48.732;9.148;2023-12-04T07:10:55;-3.60;99.90
4828;DHT22;2428;48.732;9.148;2023-12-04T07:13:21;-3.60;99.90
4828;DHT22;2428;48.732;9.148;2023-12-04T07:15:47;-3.60;99.90
4828;DHT22;2428;48.732;9.148;2023-12-04T07:18:12;-3.60;99.90
4828;DHT22;2428;48.732;9.148;2023-12-04T07:20:38;-3.70;99.90
4828;DHT22;2428;48.732;9.148;2023-12-04T07:23:03;-3.70;99.90
4828;DHT22;2428;48.732;9.148;2023-12-04T07:25:29;-3.70;99.90
4828;DHT22;2428;48.732;9.148;2023-12-04T07:27:54;-3.60;99.90
4828;DHT22;2428;48.732;9.148;2023-12-04T07:30:20;-3.60;99.90
4828;DHT22;2428;48.732;9.148;2023-12-04T07:32:46;-3.60;99.90
4828;DHT22;2428;48.732;9.148;2023-12-04T07:35:12;-3.50;99.90
4828;DHT22;2428;48.732;9.148;2023-12-04T07:37:37;-3.50;99.90
4828;DHT22;2428;48.732;9.148;2023-12-04T07:40:04;-3.50;99.90
4828;DHT22;2428;48.732;9.148;2023-12-04T07:42:31;-3.50;99.90
4828;DHT22;2428;48.732;9.148;2023-12-04T07:44:56;-3.50;99.90
4828;DHT22;2428;48.732;9.148;2023-12-04T07:47:23;-3.50;99.90
4828;DHT22;2428;48.732;9.148;2023-12-04T07:49:48;-3.50;99.90
4828;DHT22;2428;48.732;9.148;2023-12-04T07:52:14;-3.50;99.90
4828;DHT22;2428;48.732;9.148;2023-12-04T07:54:40;-3.50;99.90
4828;DHT22;2428;48.732;9.148;2023-12-04T07:57:05;-3.50;99.90
4828;DHT22;2428;48.732;9.148;2023-12-04T07:59:31;-3.50;99.90
4828;DHT22;2428;48.732;9.148;2023-12-04T08:01:57;-3.60;99.90
4828;DHT22;2428;48.732;9.148;2023-12-04T08:04:22;-3.50;99.90
4828;DHT22;2428;48.732;9.148;2023-12-04T08:06:48;-3.60;99.90
4828;DHT22;2428;48.732;9.148;2023-12-04T08:09:15;-3.60;99.90
4828;DHT22;2428;48.732;9.148;2023-12-04T08:11:40;-3.50;99.90
4828;DHT22;2428;48.732;9.148;2023-12-04T08:14:06;-3.40;99.90
4828;DHT22;2428;48.732;9.148;2023-12-04T08:16:32;-3.30;99.90
4828;DHT22;2428;48.732;9.148;2023-12-04T08:18:57;-3.30;99.90
4828;DHT22;2428;48.732;9.148;2023-12-04T08:21:23;-3.30;99.90
4828;DHT22;2428;48.732;9.148;2023-12-04T08:23:48;-3.30;99.90
4828;DHT22;2428;48.732;9.148;2023-12-04T08:26:23;-3.30;99.90
4828;DHT22;2428;48.732;9.148;2023-12-04T08:28:50;-3.30;99.90
4828;DHT22;2428;48.732;9.148;2023-12-04T08:31:16;-3.40;99.90
4828;DHT22;2428;48.732;9.148;2023-12-04T08:33:42;-3.40;99.90
4828;DHT22;2428;48.732;9.148;2023-12-04T08:36:08;-3.40;99.90
4828;DHT22;2428;48.732;9.148;2023-12-04T08:38:34;-3.40;99.90
4828;DHT22;2428;48.732;9.148;2023-12-04T08:40:59;-3.40;99.90
4828;DHT22;2428;48.732;9.148;2023-12-04T08:43:25;-3.40;99.90
4828;DHT22;2428;48.732;9.148;2023-12-04T08:45:50;-3.40;99.90
4828;DHT22;2428;48.732;9.148;2023-12-04T08:48:16;-3.40;99.90
4828;DHT22;2428;48.732;9.148;2023-12-04T08:50:41;-3.30;99.90
4828;DHT22;2428;48.732;9.148;2023-12-04T08:53:07;-3.30;99.90
4828;DHT22;2428;48.732;9.148;2023-12-04T08:55:32;-3.20;99.90
4828;DHT22;2428;48.732;9.148;2023-12-04T08:57:58;-3.20;99.90
4828;DHT22;2428;48.732;9.148;2023-12-04T09:00:24;-3.10;99.90
4828;DHT22;2428;48.732;9.148;2023-12-04T09:02:49;-3.00;99.90
4828;DHT22;2428;48.732;9.148;2023-12-04T09:05:15;-3.00;99.90
4828;DHT22;2428;48.732;9.148;2023-12-04T09:07:40;-2.90;99.90
4828;DHT22;2428;48.732;9.148;2023-12-04T09:10:06;-2.80;99.90
4828;DHT22;2428;48.732;9.148;2023-12-04T09:12:32;-2.80;99.90
4828;DHT22;2428;48.732;9.148;2023-12-04T09:15:00;-2.80;99.90
4828;DHT22;2428;48.732;9.148;2023-12-04T09:17:27;-2.80;99.90
4828;DHT22;2428;48.732;9.148;2023-12-04T09:19:53;-2.80;99.90
4828;DHT22;2428;48.732;9.148;2023-12-04T09:22:19;-2.70;99.90
4828;DHT22;2428;48.732;9.148;2023-12-04T09:24:45;-2.70;99.90
4828;DHT22;2428;48.732;9.148;2023-12-04T09:27:10;-2.60;99.90
4828;DHT22;2428;48.732;9.148;2023-12-04T09:29:36;-2.50;99.90
4828;DHT22;2428;48.732;9.148;2023-12-04T09:32:02;-2.50;99.90
4828;DHT22;2428;48.732;9.148;2023-12-04T09:34:27;-2.40;99.90
4828;DHT22;2428;48.732;9.148;2023-12-04T09:36:53;-2.30;99.90
4828;DHT22;2428;48.732;9.148;2023-12-04T09:39:18;-2.20;99.90
4828;DHT22;2428;48.732;9.148;2023-12-04T09:41:44;-2.10;99.90
4828;DHT22;2428;48.732;9.148;2023-12-04T09:44:11;-2.10;99.90
4828;DHT22;2428;48.732;9.148;2023-12-04T09:46:38;-2.10;99.90
4828;DHT22;2428;48.732;9.148;2023-12-04T09:49:04;-2.20;99.90
4828;DHT22;2428;48.732;9.148;2023-12-04T09:51:30;-2.20;99.90
4828;DHT22;2428;48.732;9.148;2023-12-04T09:53:57;-2.10;99.90
4828;DHT22;2428;48.732;9.148;2023-12-04T09:56:26;-2.10;99.90
4828;DHT22;2428;48.732;9.148;2023-12-04T09:58:58;-2.00;99.90
4828;DHT22;2428;48.732;9.148;2023-12-04T10:01:25;-2.00;99.90
4828;DHT22;2428;48.732;9.148;2023-12-04T10:03:51;-2.00;99.90
4828;DHT22;2428;48.732;9.148;2023-12-04T10:06:19;-2.00;99.90
4828;DHT22;2428;48.732;9.148;2023-12-04T10:08:45;-1.90;99.90
4828;DHT22;2428;48.732;9.148;2023-12-04T10:11:12;-1.80;99.90
4828;DHT22;2428;48.732;9.148;2023-12-04T10:13:40;-1.70;99.90
4828;DHT22;2428;48.732;9.148;2023-12-04T10:16:06;-1.70;99.90
4828;DHT22;2428;48.732;9.148;2023-12-04T10:18:32;-1.70;99.90
4828;DHT22;2428;48.732;9.148;2023-12-04T10:20:58;-1.70;99.90
4828;DHT22;2428;48.732;9.148;2023-12-04T10:23:41;-1.70;99.90
4828;DHT22;2428;48.732;9.148;2023-12-04T10:26:08;-1.70;99.90
4828;DHT22;2428;48.732;9.148;2023-12-04T10:28:34;-1.70;99.90
4828;DHT22;2428;48.732;9.148;2023-12-04T10:31:00;-1.60;99.90
4828;DHT22;2428;48.732;9.148;2023-12-04T10:33:26;-1.60;99.90
4828;DHT22;2428;48.732;9.148;2023-12-04T10:35:52;-1.60;99.90
4828;DHT22;2428;48.732;9.148;2023-12-04T10:38:18;-1.60;99.90
4828;DHT22;2428;48.732;9.148;2023-12-04T10:40:44;-1.60;99.90
4828;DHT22;2428;48.732;9.148;2023-12-04T10:43:23;-1.50;99.90
4828;DHT22;2428;48.732;9.148;2023-12-04T10:45:50;-1.40;99.90
4828;DHT22;2428;48.732;9.148;2023-12-04T10:48:17;-1.40;99.90
4828;DHT22;2428;48.732;9.148;2023-12-04T10:50:45;-1.30;99.90
4828;DHT22;2428;48.732;9.148;2023-12-04T10:53:14;-1.20;99.90
4828;DHT22;2428;48.732;9.148;2023-12-04T10:55:41;-1.20;99.90
4828;DHT22;2428;48.732;9.148;2023-12-04T10:58:09;-1.10;99.90
4828;DHT22;2428;48.732;9.148;2023-12-04T11:00:38;-1.10;99.90
4828;DHT22;2428;48.732;9.148;2023-12-04T11:03:08;-1.00;99.90
4828;DHT22;2428;48.732;9.148;2023-12-04T11:05:40;-0.90;99.90
4828;DHT22;2428;48.732;9.148;2023-12-04T11:08:07;-0.90;99.90
4828;DHT22;2428;48.732;9.148;2023-12-04T11:10:37;-0.70;99.90
4828;DHT22;2428;48.732;9.148;2023-12-04T11:13:10;-0.70;99.90
4828;DHT22;2428;48.732;9.148;2023-12-04T11:15:42;-0.70;99.90
4828;DHT22;2428;48.732;9.148;2023-12-04T11:18:13;-0.60;99.90
4828;DHT22;2428;48.732;9.148;2023-12-04T11:20:46;-0.50;99.90
4828;DHT22;2428;48.732;9.148;2023-12-04T11:23:13;-0.50;99.90
4828;DHT22;2428;48.732;9.148;2023-12-04T11:25:41;-0.40;99.90
4828;DHT22;2428;48.732;9.148;2023-12-04T11:28:07;-0.40;99.90
4828;DHT22;2428;48.732;9.148;2023-12-04T11:30:33;-0.50;99.90
4828;DHT22;2428;48.732;9.148;2023-12-04T11:33:00;-0.40;99.90
4828;DHT22;2428;48.732;9.148;2023-12-04T11:35:26;-0.40;99.90
4828;DHT22;2428;48.732;9.148;2023-12-04T11:37:52;-0.30;99.90
4828;DHT22;2428;48.732;9.148;2023-12-04T11:40:18;-0.30;99.90
4828;DHT22;2428;48.732;9.148;2023-12-04T11:42:44;-0.30;99.90
4828;DHT22;2428;48.732;9.148;2023-12-04T11:45:10;-0.30;99.90
4828;DHT22;2428;48.732;9.148;2023-12-04T11:50:19;-0.30;99.90
4828;DHT22;2428;48.732;9.148;2023-12-04T11:52:45;-0.30;99.90
4828;DHT22;2428;48.732;9.148;2023-12-04T11:55:11;-0.30;99.90
4828;DHT22;2428;48.732;9.148;2023-12-04T11:57:40;-0.30;99.90
4828;DHT22;2428;48.732;9.148;2023-12-04T12:00:09;-0.30;99.90
4828;DHT22;2428;48.732;9.148;2023-12-04T12:02:38;-0.20;99.90
4828;DHT22;2428;48.732;9.148;2023-12-04T12:05:05;-0.20;99.90
4828;DHT22;2428;48.732;9.148;2023-12-04T12:07:32;-0.20;99.90
4828;DHT22;2428;48.732;9.148;2023-12-04T12:09:58;-0.30;99.90
4828;DHT22;2428;48.732;9.148;2023-12-04T12:12:25;-0.30;99.90
4828;DHT22;2428;48.732;9.148;2023-12-04T12:14:51;-0.30;99.90
4828;DHT22;2428;48.732;9.148;2023-12-04T12:17:17;-0.20;99.90
4828;DHT22;2428;48.732;9.148;2023-12-04T12:19:43;-0.30;99.90
4828;DHT22;2428;48.732;9.148;2023-12-04T12:22:09;-0.30;99.90
4828;DHT22;2428;48.732;9.148;2023-12-04T12:24:35;-0.10;99.90
4828;DHT22;2428;48.732;9.148;2023-12-04T12:27:01;0.00;99.90
4828;DHT22;2428;48.732;9.148;2023-12-04T12:29:27;0.00;99.90
4828;DHT22;2428;48.732;9.148;2023-12-04T12:31:53;0.00;99.90
4828;DHT22;2428;48.732;9.148;2023-12-04T12:34:18;0.00;99.90
4828;DHT22;2428;48.732;9.148;2023-12-04T12:36:44;-0.10;99.90
4828;DHT22;2428;48.732;9.148;2023-12-04T12:39:10;-0.10;99.90
4828;DHT22;2428;48.732;9.148;2023-12-04T12:41:37;-0.10;99.90
4828;DHT22;2428;48.732;9.148;2023-12-04T12:44:03;0.00;99.90
4828;DHT22;2428;48.732;9.148;2023-12-04T12:46:29;-0.10;99.90
4828;DHT22;2428;48.732;9.148;2023-12-04T12:48:54;-0.10;99.90
4828;DHT22;2428;48.732;9.148;2023-12-04T12:51:20;-0.20;99.90
4828;DHT22;2428;48.732;9.148;2023-12-04T12:53:45;-0.30;99.90
4828;DHT22;2428;48.732;9.148;2023-12-04T12:56:13;-0.30;99.90
4828;DHT22;2428;48.732;9.148;2023-12-04T12:58:39;-0.40;99.90
4828;DHT22;2428;48.732;9.148;2023-12-04T13:01:10;-0.30;99.90
4828;DHT22;2428;48.732;9.148;2023-12-04T13:03:35;-0.30;99.90
4828;DHT22;2428;48.732;9.148;2023-12-04T13:06:03;-0.20;99.90
4828;DHT22;2428;48.732;9.148;2023-12-04T13:08:28;-0.20;99.90
4828;DHT22;2428;48.732;9.148;2023-12-04T13:10:54;-0.30;99.90
4828;DHT22;2428;48.732;9.148;2023-12-04T13:13:20;-0.20;99.90
4828;DHT22;2428;48.732;9.148;2023-12-04T13:15:46;-0.20;99.90
4828;DHT22;2428;48.732;9.148;2023-12-04T13:18:11;-0.30;99.90
4828;DHT22;2428;48.732;9.148;2023-12-04T13:20:37;-0.30;99.90
4828;DHT22;2428;48.732;9.148;2023-12-04T13:23:02;-0.20;99.90
4828;DHT22;2428;48.732;9.148;2023-12-04T13:25:28;-0.30;99.90
4828;DHT22;2428;48.732;9.148;2023-12-04T13:27:53;-0.20;99.90
4828;DHT22;2428;48.732;9.148;2023-12-04T13:30:19;-0.30;99.90
4828;DHT22;2428;48.732;9.148;2023-12-04T13:32:45;-0.30;99.90
4828;DHT22;2428;48.732;9.148;2023-12-04T13:35:11;-0.40;99.90
4828;DHT22;2428;48.732;9.148;2023-12-04T13:37:37;-0.40;99.90
4828;DHT22;2428;48.732;9.148;2023-12-04T13:40:05;-0.50;99.90
4828;DHT22;2428;48.732;9.148;2023-12-04T13:42:32;-0.50;99.90
4828;DHT22;2428;48.732;9.148;2023-12-04T13:45:16;-0.60;99.90
4828;DHT22;2428;48.732;9.148;2023-12-04T13:47:42;-0.70;99.90
4828;DHT22;2428;48.732;9.148;2023-12-04T13:50:09;-0.70;99.90
4828;DHT22;2428;48.732;9.148;2023-12-04T13:52:35;-0.70;99.90
4828;DHT22;2428;48.732;9.148;2023-12-04T13:55:01;-0.70;99.90
4828;DHT22;2428;48.732;9.148;2023-12-04T13:57:36;-0.70;99.90
4828;DHT22;2428;48.732;9.148;2023-12-04T14:00:10;-0.60;99.90
4828;DHT22;2428;48.732;9.148;2023-12-04T14:02:35;-0.60;99.90
4828;DHT22;2428;48.732;9.148;2023-12-04T14:05:03;-0.60;99.90
4828;DHT22;2428;48.732;9.148;2023-12-04T14:07:28;-0.60;99.90
4828;DHT22;2428;48.732;9.148;2023-12-04T14:09:54;-0.60;99.90
4828;DHT22;2428;48.732;9.148;2023-12-04T14:12:20;-0.60;99.90
4828;DHT22;2428;48.732;9.148;2023-12-04T14:14:45;-0.70;99.90
4828;DHT22;2428;48.732;9.148;2023-12-04T14:17:12;-0.70;99.90
4828;DHT22;2428;48.732;9.148;2023-12-04T14:19:38;-0.70;99.90
4828;DHT22;2428;48.732;9.148;2023-12-04T14:22:05;-0.70;99.90
4828;DHT22;2428;48.732;9.148;2023-12-04T14:24:30;-0.70;99.90
4828;DHT22;2428;48.732;9.148;2023-12-04T14:26:56;-0.70;99.90
4828;DHT22;2428;48.732;9.148;2023-12-04T14:29:22;-0.70;99.90
4828;DHT22;2428;48.732;9.148;2023-12-04T14:31:47;-0.70;99.90
4828;DHT22;2428;48.732;9.148;2023-12-04T14:34:13;-0.60;99.90
4828;DHT22;2428;48.732;9.148;2023-12-04T14:36:38;-0.70;99.90
4828;DHT22;2428;48.732;9.148;2023-12-04T14:39:06;-0.70;99.90
4828;DHT22;2428;48.732;9.148;2023-12-04T14:41:32;-0.80;99.90
4828;DHT22;2428;48.732;9.148;2023-12-04T14:43:57;-0.80;99.90
4828;DHT22;2428;48.732;9.148;2023-12-04T14:46:23;-0.80;99.90
4828;DHT22;2428;48.732;9.148;2023-12-04T14:48:49;-0.80;99.90
4828;DHT22;2428;48.732;9.148;2023-12-04T14:51:15;-0.80;99.90
4828;DHT22;2428;48.732;9.148;2023-12-04T14:53:41;-0.80;99.90
4828;DHT22;2428;48.732;9.148;2023-12-04T14:56:17;-0.80;99.90
4828;DHT22;2428;48.732;9.148;2023-12-04T14:58:48;-0.80;99.90
4828;DHT22;2428;48.732;9.148;2023-12-04T15:01:37;-0.80;99.90
4828;DHT22;2428;48.732;9.148;2023-12-04T15:04:21;-0.80;99.90
4828;DHT22;2428;48.732;9.148;2023-12-04T15:06:49;-0.80;99.90
4828;DHT22;2428;48.732;9.148;2023-12-04T15:09:17;-0.70;99.90
4828;DHT22;2428;48.732;9.148;2023-12-04T15:12:03;-0.70;99.90
4828;DHT22;2428;48.732;9.148;2023-12-04T15:14:32;-0.70;99.90
4828;DHT22;2428;48.732;9.148;2023-12-04T15:17:18;-0.60;99.90
4828;DHT22;2428;48.732;9.148;2023-12-04T15:19:55;-0.70;99.90
4828;DHT22;2428;48.732;9.148;2023-12-04T15:22:50;-0.70;99.90
4828;DHT22;2428;48.732;9.148;2023-12-04T15:25:16;-0.70;99.90
4828;DHT22;2428;48.732;9.148;2023-12-04T15:27:43;-0.70;99.90
4828;DHT22;2428;48.732;9.148;2023-12-04T15:30:09;-0.70;99.90
4828;DHT22;2428;48.732;9.148;2023-12-04T15:32:35;-0.70;99.90
4828;DHT22;2428;48.732;9.148;2023-12-04T15:35:00;-0.70;99.90
4828;DHT22;2428;48.732;9.148;2023-12-04T15:37:26;-0.70;99.90
4828;DHT22;2428;48.732;9.148;2023-12-04T15:39:52;-0.70;99.90
4828;DHT22;2428;48.732;9.148;2023-12-04T15:42:18;-0.60;99.90
4828;DHT22;2428;48.732;9.148;2023-12-04T15:44:44;-0.60;99.90
4828;DHT22;2428;48.732;9.148;2023-12-04T15:47:10;-0.60;99.90
4828;DHT22;2428;48.732;9.148;2023-12-04T15:49:35;-0.60;99.90
4828;DHT22;2428;48.732;9.148;2023-12-04T15:52:01;-0.60;99.90
4828;DHT22;2428;48.732;9.148;2023-12-04T15:54:26;-0.50;99.90
4828;DHT22;2428;48.732;9.148;2023-12-04T15:56:52;-0.60;99.90
4828;DHT22;2428;48.732;9.148;2023-12-04T15:59:17;-0.60;99.90